This is the latest recevied weather packets stored in our database for station/object DB0MW-13. If no packets are shown the sender has not sent any weather packets the latest 1 day(s).
| Time | Temp. | Humidity | Pressure | Rain* | Wind** | Luminosity | Snow |
|---|---|---|---|---|---|---|---|
| 1777996201 | 17.22° C | 86% | 1008.3 hPa | 0.76 mm | 0.45 m/s, 16° | - | - |
| 1777995901 | 17.22° C | 86% | 1008.5 hPa | 0.51 mm | 0 m/s | - | - |
| 1777995601 | 17.22° C | 86% | 1008.6 hPa | 0.51 mm | 0 m/s | - | - |
| 1777995301 | 17.22° C | 86% | 1008.6 hPa | 0.51 mm | 0.45 m/s, 359° | - | - |
| 1777995000 | 17.78° C | 85% | 1008.7 hPa | 0.51 mm | 0.45 m/s, 344° | - | - |
| 1777994701 | 17.78° C | 85% | 1008.7 hPa | 0.25 mm | 0.89 m/s, 341° | - | - |
| 1777994401 | 17.78° C | 83% | 1008.7 hPa | 0.25 mm | 1.34 m/s, 262° | - | - |
| 1777994101 | 17.78° C | 81% | 1008.5 hPa | 0 mm | 1.34 m/s, 354° | - | - |
| 1777993801 | 18.33° C | 80% | 1008.5 hPa | 0 mm | 1.34 m/s, 304° | - | - |
| 1777993500 | 18.33° C | 79% | 1008.4 hPa | 0 mm | 0.89 m/s, 347° | - | - |
| 1777993200 | 18.33° C | 77% | 1008.4 hPa | 0 mm | 0.89 m/s, 356° | - | - |
| 1777992900 | 18.33° C | 75% | 1008.1 hPa | 0 mm | 1.34 m/s, 15° | - | - |
| 1777992600 | 18.89° C | 74% | 1008.3 hPa | 0 mm | 1.34 m/s, 356° | - | - |
| 1777992300 | 18.89° C | 74% | 1008.3 hPa | 0 mm | 1.34 m/s, 13° | - | - |
| 1777992000 | 18.89° C | 74% | 1008.3 hPa | 0 mm | 1.34 m/s, 10° | - | - |
| 1777991700 | 18.89° C | 74% | 1008.3 hPa | 0 mm | 1.34 m/s, 19° | - | - |
| 1777991400 | 18.89° C | 73% | 1008.2 hPa | 0 mm | 0.89 m/s, 15° | - | - |
| 1777991100 | 18.89° C | 75% | 1008.3 hPa | 0 mm | 0.45 m/s, 356° | - | - |
| 1777990800 | 18.89° C | 75% | 1008.2 hPa | 0 mm | 0.45 m/s, 30° | - | - |
| 1777990500 | 19.44° C | 75% | 1008.3 hPa | 0 mm | 0.89 m/s, 22° | - | - |
| 1777990200 | 19.44° C | 73% | 1008.5 hPa | 0 mm | 0.89 m/s, 1° | - | - |
| 1777989901 | 19.44° C | 74% | 1008.4 hPa | 0 mm | 0.89 m/s, 6° | - | - |
| 1777989601 | 19.44° C | 73% | 1008.5 hPa | 0 mm | 0.89 m/s, 2° | - | - |
| 1777989301 | 19.44° C | 72% | 1008.7 hPa | 0 mm | 0.89 m/s, 335° | - | - |
| 1777989001 | 20° C | 70% | 1008.7 hPa | 0 mm | 1.34 m/s, 339° | - | - |
* Rain latest hour (hover to see other rain measurements)
** Current wind speed in m/s (hover to see current wind gust speed)